createdAt,value
2019-02-25T00:02:00.736Z,77.50
2019-02-25T00:04:33.026Z,77.90
2019-02-25T00:07:02.876Z,78.10
2019-02-25T00:09:33.725Z,78.40
2019-02-25T00:12:04.933Z,78.50
2019-02-25T00:14:33.861Z,78.80
2019-02-25T00:17:20.971Z,79.00
2019-02-25T00:19:49.813Z,79.00
2019-02-25T00:22:20.728Z,79.30
2019-02-25T00:24:49.565Z,80.60
2019-02-25T00:27:21.110Z,79.90
2019-02-25T00:29:55.050Z,79.90
2019-02-25T00:32:23.910Z,80.00
2019-02-25T00:34:52.731Z,79.90
2019-02-25T00:37:21.552Z,80.20
2019-02-25T00:39:51.709Z,80.40
2019-02-25T00:42:35.509Z,80.60
2019-02-25T00:45:07.385Z,80.60
2019-02-25T00:47:44.337Z,80.40
2019-02-25T00:50:16.561Z,80.40
2019-02-25T00:52:51.581Z,80.30
2019-02-25T00:55:23.692Z,80.60
2019-02-25T00:57:58.781Z,80.70
2019-02-25T01:00:28.129Z,80.60
2019-02-25T01:02:58.191Z,80.90
2019-02-25T01:05:28.111Z,81.00
2019-02-25T01:08:04.388Z,80.80
2019-02-25T01:10:30.219Z,80.80
2019-02-25T01:13:18.949Z,80.70
2019-02-25T01:15:48.924Z,80.70
2019-02-25T01:18:17.895Z,80.70
2019-02-25T01:20:48.264Z,80.70
2019-02-25T01:23:17.045Z,80.60
2019-02-25T01:25:46.240Z,80.50
2019-02-25T01:28:17.374Z,80.50
2019-02-25T01:30:50.775Z,80.50
2019-02-25T01:33:21.486Z,80.60
2019-02-25T01:35:50.515Z,80.20
2019-02-25T01:38:22.244Z,80.20
2019-02-25T01:40:51.327Z,80.00
2019-02-25T01:43:20.343Z,80.10
2019-02-25T01:45:52.323Z,80.20
2019-02-25T01:48:21.945Z,80.00
2019-02-25T01:50:50.782Z,79.90
2019-02-25T01:53:20.533Z,79.60
2019-02-25T01:56:07.271Z,79.50
2019-02-25T01:58:36.029Z,79.70
2019-02-25T02:01:04.950Z,79.90
2019-02-25T02:03:34.076Z,80.00
2019-02-25T02:06:23.107Z,80.00
2019-02-25T02:08:52.210Z,80.00
2019-02-25T02:11:23.061Z,80.20
2019-02-25T02:13:53.271Z,80.30
2019-02-25T02:16:26.703Z,80.40
2019-02-25T02:18:56.561Z,79.90
2019-02-25T02:21:29.200Z,79.90
2019-02-25T02:24:01.925Z,80.00
2019-02-25T02:26:34.740Z,79.90
2019-02-25T02:29:03.527Z,80.00
2019-02-25T02:31:35.216Z,80.00
2019-02-25T02:34:04.141Z,80.30
2019-02-25T02:40:03.603Z,80.90
2019-02-25T02:42:57.323Z,80.90
2019-02-25T02:45:35.339Z,81.10
2019-02-25T02:48:19.271Z,81.10
2019-02-25T02:53:37.417Z,81.50
2019-02-25T02:56:07.726Z,82.00
2019-02-25T02:58:37.819Z,82.20
2019-02-25T03:01:07.136Z,82.00
2019-02-25T03:03:38.121Z,82.20
2019-02-25T03:06:07.033Z,82.30
2019-02-25T03:08:36.180Z,82.50
2019-02-25T03:11:05.256Z,82.70
2019-02-25T03:13:34.118Z,82.70
2019-02-25T03:16:05.260Z,82.90
2019-02-25T03:18:34.151Z,83.00
2019-02-25T03:21:03.018Z,83.00
2019-02-25T03:23:31.818Z,84.30
2019-02-25T03:26:04.952Z,83.80
2019-02-25T03:28:36.894Z,84.10
2019-02-25T03:31:05.985Z,84.40
2019-02-25T03:33:34.702Z,85.00
2019-02-25T03:36:05.568Z,84.40
2019-02-25T03:38:36.050Z,84.70
2019-02-25T03:41:06.098Z,84.90
2019-02-25T03:43:35.049Z,84.70
2019-02-25T03:46:03.862Z,84.70
2019-02-25T03:48:32.775Z,84.60
2019-02-25T03:51:03.986Z,84.60
2019-02-25T03:53:33.305Z,84.80
2019-02-25T03:56:02.119Z,84.90
2019-02-25T03:58:35.263Z,84.70
2019-02-25T04:01:04.615Z,84.80
2019-02-25T04:03:34.651Z,84.80
2019-02-25T04:06:05.305Z,84.90
2019-02-25T04:08:34.228Z,84.70
2019-02-25T04:11:06.192Z,84.90
2019-02-25T04:13:42.945Z,84.90
2019-02-25T04:16:12.559Z,84.90
2019-02-25T04:18:43.513Z,84.90
2019-02-25T04:21:14.384Z,84.90
2019-02-25T04:23:45.607Z,85.10
2019-02-25T04:26:14.635Z,85.40
2019-02-25T04:28:43.528Z,85.60
2019-02-25T04:31:15.554Z,85.60
2019-02-25T04:33:44.323Z,85.60
2019-02-25T04:36:15.247Z,85.70
2019-02-25T04:38:43.912Z,85.60
2019-02-25T04:41:12.692Z,85.60
2019-02-25T04:43:41.757Z,85.80
2019-02-25T04:46:11.716Z,86.00
2019-02-25T04:48:40.669Z,86.20
2019-02-25T04:51:09.487Z,86.20
2019-02-25T04:53:41.019Z,86.30
2019-02-25T04:56:12.794Z,86.50
2019-02-25T04:58:44.903Z,86.70
2019-02-25T05:01:13.954Z,87.00
2019-02-25T05:03:44.416Z,87.30
2019-02-25T05:06:13.219Z,87.40
2019-02-25T05:08:42.090Z,87.50
2019-02-25T05:11:11.059Z,87.70
2019-02-25T05:16:40.047Z,88.00
2019-02-25T05:19:18.020Z,88.40
2019-02-25T05:21:46.902Z,88.60
2019-02-25T05:24:17.636Z,88.70
2019-02-25T05:26:46.484Z,89.00
2019-02-25T05:29:16.244Z,88.90
2019-02-25T05:31:48.164Z,89.20
2019-02-25T05:34:19.002Z,89.20
2019-02-25T05:36:47.910Z,89.30
2019-02-25T05:39:48.885Z,89.30
2019-02-25T05:42:24.129Z,89.70
2019-02-25T05:44:53.175Z,89.90
2019-02-25T05:47:21.880Z,89.90
2019-02-25T05:49:51.818Z,89.90
2019-02-25T05:52:21.135Z,89.80
2019-02-25T05:54:53.303Z,89.90
2019-02-25T05:57:22.399Z,89.80
2019-02-25T05:59:53.020Z,89.70
2019-02-25T06:02:21.806Z,89.60
2019-02-25T06:05:06.535Z,89.40
2019-02-25T06:07:46.149Z,89.10
2019-02-25T06:10:18.274Z,88.80
2019-02-25T06:13:06.614Z,88.60
2019-02-25T06:15:35.687Z,88.40
2019-02-25T06:18:13.441Z,88.20
2019-02-25T06:20:42.597Z,88.10
2019-02-25T06:23:11.472Z,88.10
2019-02-25T06:25:44.528Z,88.10
2019-02-25T06:28:15.066Z,88.20
2019-02-25T06:30:44.002Z,88.20
2019-02-25T06:33:12.997Z,88.10
2019-02-25T06:35:41.946Z,87.80
2019-02-25T06:38:10.985Z,87.50
2019-02-25T06:40:40.046Z,87.30
2019-02-25T06:43:11.192Z,86.80
2019-02-25T06:45:44.263Z,86.40
2019-02-25T06:48:13.084Z,85.80
2019-02-25T06:50:42.532Z,85.20
2019-02-25T06:53:11.474Z,85.20
2019-02-25T06:55:40.543Z,85.00
2019-02-25T06:58:15.509Z,84.80
2019-02-25T07:00:40.178Z,84.70
2019-02-25T07:03:09.015Z,84.10
2019-02-25T07:05:56.859Z,84.20
2019-02-25T07:08:44.005Z,83.50
2019-02-25T07:11:32.073Z,83.20
2019-02-25T07:14:04.363Z,82.30
2019-02-25T07:16:53.430Z,82.30
2019-02-25T07:19:23.880Z,82.30
2019-02-25T07:21:56.916Z,82.00
2019-02-25T07:24:36.590Z,81.80
2019-02-25T07:27:10.822Z,81.50
2019-02-25T07:29:50.403Z,81.00
2019-02-25T07:32:46.255Z,81.20
2019-02-25T07:35:19.763Z,81.40
2019-02-25T07:40:41.741Z,77.50
2019-02-25T07:43:12.399Z,74.20
2019-02-25T07:45:57.732Z,70.70
2019-02-25T07:48:33.969Z,69.50
2019-02-25T07:51:04.363Z,66.20
2019-02-25T07:53:43.726Z,63.30
2019-02-25T07:56:17.200Z,60.60
2019-02-25T07:58:59.649Z,58.10
2019-02-25T08:01:36.072Z,56.70
2019-02-25T08:04:15.581Z,57.70
2019-02-25T08:06:46.191Z,58.30
2019-02-25T08:09:25.487Z,56.50
2019-02-25T08:12:13.880Z,54.00
2019-02-25T08:14:50.401Z,51.70
2019-02-25T08:17:26.973Z,51.60
2019-02-25T08:20:12.806Z,53.00
2019-02-25T08:22:47.737Z,53.80
2019-02-25T08:25:22.579Z,54.90
2019-02-25T08:28:12.505Z,55.80
2019-02-25T08:30:49.133Z,58.10
2019-02-25T08:33:36.202Z,60.70
2019-02-25T08:36:28.194Z,60.00
2019-02-25T08:39:01.596Z,58.80
2019-02-25T08:41:31.995Z,55.10
2019-02-25T08:44:04.750Z,50.40
2019-02-25T08:46:42.700Z,48.50
2019-02-25T08:49:22.354Z,48.10
2019-02-25T08:51:51.067Z,46.50
2019-02-25T08:54:20.073Z,44.80
2019-02-25T08:56:50.643Z,47.10
2019-02-25T08:59:19.734Z,50.10
2019-02-25T09:01:50.541Z,52.90
2019-02-25T09:04:19.272Z,52.90
2019-02-25T09:06:48.330Z,52.90
2019-02-25T09:09:17.119Z,52.40
2019-02-25T09:11:46.081Z,50.80
2019-02-25T09:14:14.978Z,50.80
2019-02-25T09:16:51.075Z,48.60
2019-02-25T09:19:28.196Z,45.00
2019-02-25T09:22:04.926Z,43.40
2019-02-25T09:24:45.773Z,41.50
2019-02-25T09:27:18.988Z,40.60
2019-02-25T09:29:49.843Z,40.70
2019-02-25T09:32:25.336Z,40.60
2019-02-25T09:34:57.774Z,38.90
2019-02-25T09:37:33.793Z,38.60
2019-02-25T09:40:17.346Z,39.20
2019-02-25T09:42:50.271Z,38.40
2019-02-25T09:45:22.385Z,37.00
2019-02-25T09:47:54.627Z,35.90
2019-02-25T09:50:23.993Z,35.70
2019-02-25T09:52:53.087Z,37.10
2019-02-25T09:58:11.360Z,37.50
2019-02-25T10:00:46.035Z,37.70
2019-02-25T10:03:16.426Z,37.70
2019-02-25T10:05:56.601Z,37.70
2019-02-25T10:08:29.801Z,36.80
2019-02-25T10:10:59.446Z,37.10
2019-02-25T10:13:28.799Z,35.50
2019-02-25T10:16:00.995Z,35.90
2019-02-25T10:18:29.849Z,36.00
2019-02-25T10:21:00.722Z,34.40
2019-02-25T10:23:32.943Z,34.70
2019-02-25T10:26:02.954Z,35.20
2019-02-25T10:28:33.735Z,37.20
2019-02-25T10:31:08.329Z,37.90
2019-02-25T10:33:41.054Z,37.80
2019-02-25T10:36:09.867Z,37.70
2019-02-25T10:38:38.893Z,37.30
2019-02-25T10:41:07.847Z,38.50
2019-02-25T10:43:41.013Z,40.10
2019-02-25T10:46:12.966Z,40.50
2019-02-25T10:48:44.032Z,40.10
2019-02-25T10:51:13.692Z,39.90
2019-02-25T10:53:43.108Z,40.90
2019-02-25T10:56:19.978Z,40.70
2019-02-25T10:58:49.682Z,40.30
2019-02-25T11:01:19.898Z,40.70
2019-02-25T11:03:50.046Z,40.90
2019-02-25T11:06:19.608Z,41.00
2019-02-25T11:08:50.098Z,41.20
2019-02-25T11:11:22.636Z,41.70
2019-02-25T11:13:51.395Z,41.20
2019-02-25T11:16:20.426Z,41.30
2019-02-25T11:18:54.021Z,39.80
2019-02-25T11:21:21.589Z,39.10
2019-02-25T11:23:51.675Z,39.00
2019-02-25T11:26:20.670Z,40.40
2019-02-25T11:28:49.623Z,40.00
2019-02-25T11:31:22.848Z,38.90
2019-02-25T11:33:49.695Z,38.90
2019-02-25T11:36:20.150Z,39.50
2019-02-25T11:38:49.042Z,39.90
2019-02-25T11:41:17.864Z,41.40
2019-02-25T11:43:48.676Z,42.50
2019-02-25T11:46:17.507Z,42.50
2019-02-25T11:48:47.604Z,44.20
2019-02-25T11:51:16.819Z,45.30
2019-02-25T11:53:45.648Z,45.10
2019-02-25T11:56:14.459Z,45.40
2019-02-25T11:58:43.389Z,45.20
2019-02-25T12:01:12.512Z,45.50
2019-02-25T12:03:41.418Z,47.70
2019-02-25T12:06:10.328Z,49.00
2019-02-25T12:08:39.181Z,48.60
2019-02-25T12:11:09.094Z,48.10
2019-02-25T12:13:39.417Z,47.10
2019-02-25T12:16:08.314Z,46.40
2019-02-25T12:18:38.685Z,45.90
2019-02-25T12:21:09.048Z,45.70
2019-02-25T12:23:37.772Z,45.80
2019-02-25T12:26:06.638Z,46.90
2019-02-25T12:28:35.737Z,48.30
2019-02-25T12:31:04.608Z,50.50
2019-02-25T12:33:33.458Z,52.70
2019-02-25T12:36:03.865Z,55.60
2019-02-25T12:38:32.888Z,56.90
2019-02-25T12:41:06.020Z,56.60
2019-02-25T12:43:34.907Z,56.90
2019-02-25T12:46:09.143Z,57.90
2019-02-25T12:48:37.264Z,58.20
2019-02-25T12:51:06.315Z,59.30
2019-02-25T12:53:37.698Z,59.10
2019-02-25T12:56:05.778Z,59.20
2019-02-25T12:58:34.969Z,60.20
2019-02-25T13:01:03.838Z,61.60
2019-02-25T13:03:32.596Z,63.00
2019-02-25T13:06:01.728Z,64.20
2019-02-25T13:08:33.998Z,63.90
2019-02-25T13:11:04.512Z,63.70
2019-02-25T13:13:35.603Z,63.30
2019-02-25T13:16:06.022Z,63.10
2019-02-25T13:18:34.776Z,65.50
2019-02-25T13:21:03.635Z,67.60
2019-02-25T13:23:32.574Z,69.20
2019-02-25T13:26:07.439Z,68.80
2019-02-25T13:28:36.355Z,69.10
2019-02-25T13:31:05.679Z,68.70
2019-02-25T13:33:35.689Z,67.90
2019-02-25T13:36:07.494Z,67.50
2019-02-25T13:38:36.306Z,67.80
2019-02-25T13:41:05.097Z,69.80
2019-02-25T13:43:33.872Z,72.40
2019-02-25T13:46:04.261Z,74.80
2019-02-25T13:48:35.732Z,77.50
2019-02-25T13:51:04.659Z,78.80
2019-02-25T13:53:33.620Z,80.00
2019-02-25T13:56:02.745Z,80.70
2019-02-25T13:58:31.651Z,81.20
2019-02-25T14:01:02.298Z,81.20
2019-02-25T14:03:31.314Z,81.70
2019-02-25T14:06:00.358Z,82.10
2019-02-25T14:08:29.771Z,82.70
2019-02-25T14:10:58.594Z,82.80
2019-02-25T14:13:32.587Z,82.60
2019-02-25T14:16:01.374Z,82.60
2019-02-25T14:18:30.346Z,83.30
2019-02-25T14:20:59.228Z,84.40
2019-02-25T14:23:28.093Z,84.70
2019-02-25T14:25:59.199Z,85.00
2019-02-25T14:28:30.054Z,83.90
2019-02-25T14:31:13.869Z,82.80
2019-02-25T14:33:42.936Z,81.50
2019-02-25T14:36:11.735Z,80.80
2019-02-25T14:38:40.815Z,80.90
2019-02-25T14:41:11.690Z,81.40
2019-02-25T14:43:45.564Z,82.10
2019-02-25T14:46:16.505Z,81.90
2019-02-25T14:48:45.169Z,82.30
2019-02-25T14:51:14.670Z,83.80
2019-02-25T14:53:44.798Z,85.00
2019-02-25T14:56:14.225Z,86.80
2019-02-25T14:58:47.767Z,87.60
2019-02-25T15:01:18.144Z,88.70
2019-02-25T15:03:47.658Z,88.90
2019-02-25T15:06:19.717Z,89.60
2019-02-25T15:08:48.644Z,90.10
2019-02-25T15:11:17.702Z,90.40
2019-02-25T15:13:46.732Z,90.70
2019-02-25T15:16:15.732Z,91.20
2019-02-25T15:18:44.813Z,91.50
2019-02-25T15:21:15.904Z,92.00
2019-02-25T15:23:44.554Z,92.50
2019-02-25T15:27:11.004Z,92.80
2019-02-25T15:29:44.731Z,93.10
2019-02-25T15:32:14.023Z,93.40
2019-02-25T15:34:43.224Z,93.60
2019-02-25T15:37:13.858Z,93.70
2019-02-25T15:39:45.190Z,93.80
2019-02-25T15:42:14.679Z,94.00
2019-02-25T15:44:44.543Z,94.10
2019-02-25T15:47:15.074Z,94.50
2019-02-25T15:49:44.395Z,94.70
2019-02-25T15:52:16.531Z,94.90
2019-02-25T15:54:47.863Z,95.00
2019-02-25T15:57:20.606Z,95.20
2019-02-25T15:59:49.601Z,95.40
2019-02-25T16:02:18.632Z,95.70
2019-02-25T16:04:47.425Z,96.00
2019-02-25T16:07:17.103Z,96.30
2019-02-25T16:09:46.590Z,96.50
2019-02-25T16:12:15.521Z,96.80
2019-02-25T16:14:44.905Z,97.00
2019-02-25T16:17:14.633Z,97.20
2019-02-25T16:19:47.343Z,97.50
2019-02-25T16:22:14.034Z,97.70
2019-02-25T16:24:43.664Z,97.70
2019-02-25T16:27:12.681Z,97.90
2019-02-25T16:29:41.615Z,98.30
2019-02-25T16:32:10.514Z,98.00
2019-02-25T16:34:40.613Z,98.00
2019-02-25T16:37:17.696Z,98.10
2019-02-25T16:39:46.821Z,98.20
2019-02-25T16:42:15.771Z,98.40
2019-02-25T16:44:44.946Z,98.70
2019-02-25T16:47:15.873Z,99.00
2019-02-25T16:49:44.456Z,99.20
2019-02-25T16:52:13.837Z,99.40
2019-02-25T16:54:44.064Z,99.50
2019-02-25T16:57:16.373Z,99.60
2019-02-25T16:59:45.159Z,99.50
2019-02-25T17:02:14.281Z,99.40
2019-02-25T17:04:43.435Z,99.60
2019-02-25T17:07:14.357Z,99.50
2019-02-25T17:09:44.477Z,99.50
2019-02-25T17:12:13.582Z,99.90
2019-02-25T17:14:50.438Z,99.60
2019-02-25T17:17:19.463Z,99.60
2019-02-25T17:19:48.665Z,99.50
2019-02-25T17:22:20.201Z,99.60
2019-02-25T17:24:52.462Z,99.50
2019-02-25T17:27:20.723Z,99.30
2019-02-25T17:30:15.330Z,99.30
2019-02-25T17:32:46.632Z,99.30
2019-02-25T17:35:19.002Z,99.40
2019-02-25T17:37:48.053Z,99.50
2019-02-25T17:40:20.415Z,99.50
2019-02-25T17:42:51.713Z,99.30
2019-02-25T17:45:25.096Z,98.90
2019-02-25T17:47:58.173Z,99.30
2019-02-25T17:50:24.791Z,99.40
2019-02-25T17:52:53.707Z,99.40
2019-02-25T17:55:27.070Z,99.40
2019-02-25T17:58:38.582Z,99.20
2019-02-25T18:01:09.278Z,99.60
2019-02-25T18:03:39.631Z,99.70
2019-02-25T18:06:08.797Z,99.80
2019-02-25T18:08:39.338Z,99.90
2019-02-25T18:11:08.501Z,99.90
2019-02-25T18:13:37.297Z,99.90
2019-02-25T18:16:07.992Z,99.90
2019-02-25T18:18:41.332Z,99.90
2019-02-25T18:21:14.885Z,99.90
2019-02-25T18:23:44.083Z,99.90
2019-02-25T18:26:14.949Z,99.90
2019-02-25T18:28:46.677Z,99.90
2019-02-25T18:31:16.588Z,99.90
2019-02-25T18:34:04.867Z,99.90
2019-02-25T18:36:34.319Z,99.90
2019-02-25T18:39:03.171Z,99.90
2019-02-25T18:41:34.223Z,99.90
2019-02-25T18:44:04.831Z,99.90
2019-02-25T18:46:36.840Z,99.90
2019-02-25T18:49:07.389Z,99.90
2019-02-25T18:51:37.465Z,99.90
2019-02-25T18:54:06.989Z,99.90
2019-02-25T18:56:40.233Z,99.90
2019-02-25T18:59:13.708Z,99.90
2019-02-25T19:01:39.857Z,99.90
2019-02-25T19:04:17.571Z,99.90
2019-02-25T19:06:51.563Z,99.90
2019-02-25T19:09:23.188Z,99.90
2019-02-25T19:11:54.006Z,99.90
2019-02-25T19:14:28.845Z,99.90
2019-02-25T19:17:01.913Z,99.90
2019-02-25T19:19:34.062Z,99.90
2019-02-25T19:22:05.944Z,99.90
2019-02-25T19:24:39.817Z,99.90
2019-02-25T19:27:09.152Z,99.90
2019-02-25T19:29:40.435Z,99.90
2019-02-25T19:32:09.298Z,99.90
2019-02-25T19:34:39.780Z,99.90
2019-02-25T19:37:12.646Z,99.90
2019-02-25T19:39:44.506Z,99.90
2019-02-25T19:42:18.203Z,99.90
2019-02-25T19:44:48.670Z,99.90
2019-02-25T19:47:19.340Z,99.90
2019-02-25T19:49:48.818Z,99.90
2019-02-25T19:52:18.685Z,99.90
2019-02-25T19:54:50.743Z,99.90
2019-02-25T19:57:21.690Z,99.90
2019-02-25T19:59:52.985Z,99.90
2019-02-25T20:02:22.591Z,99.90
2019-02-25T20:04:55.566Z,99.90
2019-02-25T20:07:26.511Z,99.90
2019-02-25T20:10:00.290Z,99.90
2019-02-25T20:12:43.781Z,99.90
2019-02-25T20:15:37.515Z,99.90
2019-02-25T20:18:02.996Z,99.90
2019-02-25T20:21:03.991Z,99.90
2019-02-25T20:23:31.917Z,99.90
2019-02-25T20:26:01.465Z,99.90
2019-02-25T20:28:30.540Z,99.90
2019-02-25T20:31:06.157Z,99.90
2019-02-25T20:33:50.903Z,99.90
2019-02-25T20:36:19.238Z,99.90
2019-02-25T20:38:46.308Z,99.90
2019-02-25T20:41:17.933Z,99.90
2019-02-25T20:43:47.243Z,99.90
2019-02-25T20:46:19.948Z,99.90
2019-02-25T20:48:50.495Z,99.90
2019-02-25T20:51:32.053Z,99.90
2019-02-25T20:54:08.848Z,99.90
2019-02-25T20:56:37.843Z,99.90
2019-02-25T20:59:10.545Z,99.90
2019-02-25T21:01:46.681Z,99.90
2019-02-25T21:04:27.694Z,99.90
2019-02-25T21:06:56.794Z,99.90
2019-02-25T21:09:29.160Z,99.90
2019-02-25T21:12:00.761Z,99.90
2019-02-25T21:14:37.999Z,99.90
2019-02-25T21:17:09.349Z,99.90
2019-02-25T21:19:44.321Z,99.90
2019-02-25T21:22:29.486Z,99.90
2019-02-25T21:25:07.384Z,99.90
2019-02-25T21:27:49.502Z,99.90
2019-02-25T21:30:37.059Z,99.90
2019-02-25T21:33:02.047Z,99.90
2019-02-25T21:35:41.964Z,99.90
2019-02-25T21:38:22.208Z,99.90
2019-02-25T21:40:48.420Z,99.90
2019-02-25T21:43:26.358Z,99.90
2019-02-25T21:45:54.774Z,99.90
2019-02-25T21:48:25.664Z,99.90
2019-02-25T21:50:58.108Z,99.90
2019-02-25T21:53:26.428Z,99.90
2019-02-25T21:56:02.948Z,99.90
2019-02-25T21:58:42.942Z,99.90
2019-02-25T22:01:20.915Z,99.90
2019-02-25T22:03:52.610Z,99.90
2019-02-25T22:06:53.360Z,99.90
2019-02-25T22:09:36.017Z,99.90
2019-02-25T22:12:10.425Z,99.90
2019-02-25T22:14:47.624Z,99.90
2019-02-25T22:17:31.966Z,99.90
2019-02-25T22:22:37.547Z,99.90
2019-02-25T22:25:27.617Z,99.90
2019-02-25T22:28:09.952Z,99.90
2019-02-25T22:33:43.812Z,99.90
2019-02-25T22:36:32.737Z,99.90
2019-02-25T22:39:09.019Z,99.90
2019-02-25T22:41:52.021Z,99.90
2019-02-25T22:47:25.027Z,99.90
2019-02-25T22:53:22.594Z,99.90
2019-02-25T22:56:11.852Z,99.90
2019-02-25T22:58:45.098Z,99.90
2019-02-25T23:01:26.276Z,99.90
2019-02-25T23:05:05.057Z,99.90
2019-02-25T23:07:02.952Z,99.90
2019-02-25T23:09:41.033Z,99.90
2019-02-25T23:12:11.551Z,99.90
2019-02-25T23:14:50.591Z,99.90
2019-02-25T23:17:23.891Z,99.90
2019-02-25T23:20:27.248Z,99.90
2019-02-25T23:24:47.420Z,99.90
2019-02-25T23:27:04.905Z,99.90
2019-02-25T23:32:33.775Z,99.90
2019-02-25T23:44:37.938Z,99.90
2019-02-25T23:47:12.862Z,99.90
2019-02-25T23:49:50.085Z,99.90
2019-02-25T23:52:30.996Z,99.90
2019-02-25T23:56:13.980Z,99.90
2019-02-25T23:58:20.232Z,99.90
